Hillsborough, Canada
Current Conditions -  °F | °C
As of 12:00 AM on Sunday 21 Dec 2014 (Local Time) from CYQM Reporting Station
Snow Showers Snow Showers  
Wind Chill: 21°   Ceiling: 1900
Heat Index: 28°   Visibility: 15mi
Dew Point: 23°   Wind: 7mph
Humidity: 80%   Direction: 40°NE
Pressure: 30.33"   Gusts: NA
Location:  45.92°N, 64.65°W
Report Text: CYQM 210400Z 04006KT 15SM -SHSN OVC019 M02/M05 A3033 RMK SC8 SLP275
Loading
Personal Weather Stations






























Interactive Weather Map New forecast layout! Learn more

10-Day Weather Forecast

Advertisements
Track Severe Weather on mobile